X  Luk Metar data     EKYT Aalborg Airport
Temperatur
11°C Temperatur
9°C Dugpunkt
88% Fugtighed



Vind
8 MPT
13 KM/T
4 M/S
7 KNOB



290°
VNV
Nuværende forhold

Klart Klart
Tryk 1016.92 (hPa) - 30.03 (inHg)
Sigt 6.2 (mil) - 10 (km)
Lufthavn
Lufthavnskode EKYT

Lokation: Aalborg Airport
Afstand: 54 (mi)

Metar:
EKYT 030450Z AUTO 29007KT 9999 NCD 11/09 Q1017

Tid: 03-10-2022 06:50 CEST